sensor_id;sensor_type;location;lat;lon;timestamp;P1;durP1;ratioP1;P2;durP2;ratioP2
10126;SDS011;13080;42.608;23.362;2024-01-16T00:02:16;12.93;;;6.20;;
10126;SDS011;13080;42.608;23.362;2024-01-16T00:04:42;20.10;;;8.77;;
10126;SDS011;13080;42.608;23.362;2024-01-16T00:07:09;14.68;;;8.43;;
10126;SDS011;13080;42.608;23.362;2024-01-16T00:09:36;16.45;;;9.23;;
10126;SDS011;13080;42.608;23.362;2024-01-16T00:12:04;18.73;;;9.43;;
10126;SDS011;13080;42.608;23.362;2024-01-16T00:14:34;15.63;;;8.73;;
10126;SDS011;13080;42.608;23.362;2024-01-16T00:17:00;16.65;;;9.32;;
10126;SDS011;13080;42.608;23.362;2024-01-16T00:19:27;18.55;;;8.00;;
10126;SDS011;13080;42.608;23.362;2024-01-16T00:21:54;16.63;;;8.32;;
10126;SDS011;13080;42.608;23.362;2024-01-16T00:24:20;15.13;;;7.85;;
10126;SDS011;13080;42.608;23.362;2024-01-16T00:26:47;14.82;;;7.80;;
10126;SDS011;13080;42.608;23.362;2024-01-16T00:29:16;15.50;;;8.50;;
10126;SDS011;13080;42.608;23.362;2024-01-16T00:31:43;15.35;;;7.32;;
10126;SDS011;13080;42.608;23.362;2024-01-16T00:34:09;13.27;;;7.65;;
10126;SDS011;13080;42.608;23.362;2024-01-16T00:36:36;13.30;;;7.60;;
10126;SDS011;13080;42.608;23.362;2024-01-16T00:39:02;13.95;;;6.35;;
10126;SDS011;13080;42.608;23.362;2024-01-16T00:41:29;14.63;;;7.43;;
10126;SDS011;13080;42.608;23.362;2024-01-16T00:43:56;21.50;;;10.02;;
10126;SDS011;13080;42.608;23.362;2024-01-16T00:46:24;18.73;;;8.10;;
10126;SDS011;13080;42.608;23.362;2024-01-16T00:48:50;16.48;;;8.85;;
10126;SDS011;13080;42.608;23.362;2024-01-16T00:51:17;15.60;;;8.25;;
10126;SDS011;13080;42.608;23.362;2024-01-16T00:53:43;13.77;;;7.30;;
10126;SDS011;13080;42.608;23.362;2024-01-16T00:56:10;20.27;;;7.82;;
10126;SDS011;13080;42.608;23.362;2024-01-16T00:58:37;13.88;;;7.15;;
10126;SDS011;13080;42.608;23.362;2024-01-16T01:01:04;13.50;;;7.55;;
10126;SDS011;13080;42.608;23.362;2024-01-16T01:03:32;12.40;;;7.22;;
10126;SDS011;13080;42.608;23.362;2024-01-16T01:05:59;16.35;;;7.88;;
10126;SDS011;13080;42.608;23.362;2024-01-16T01:08:26;16.65;;;8.18;;
10126;SDS011;13080;42.608;23.362;2024-01-16T01:10:53;12.10;;;6.85;;
10126;SDS011;13080;42.608;23.362;2024-01-16T01:13:19;11.82;;;7.32;;
10126;SDS011;13080;42.608;23.362;2024-01-16T01:15:46;11.18;;;6.35;;
10126;SDS011;13080;42.608;23.362;2024-01-16T01:18:13;11.77;;;5.90;;
10126;SDS011;13080;42.608;23.362;2024-01-16T01:20:41;12.27;;;7.28;;
10126;SDS011;13080;42.608;23.362;2024-01-16T01:23:07;13.02;;;7.18;;
10126;SDS011;13080;42.608;23.362;2024-01-16T01:25:34;15.35;;;6.30;;
10126;SDS011;13080;42.608;23.362;2024-01-16T01:28:01;14.18;;;7.18;;
10126;SDS011;13080;42.608;23.362;2024-01-16T01:30:27;11.88;;;5.25;;
10126;SDS011;13080;42.608;23.362;2024-01-16T01:32:54;10.63;;;5.68;;
10126;SDS011;13080;42.608;23.362;2024-01-16T01:35:20;9.43;;;4.97;;
10126;SDS011;13080;42.608;23.362;2024-01-16T01:37:48;9.07;;;5.07;;
10126;SDS011;13080;42.608;23.362;2024-01-16T01:40:15;12.55;;;6.57;;
10126;SDS011;13080;42.608;23.362;2024-01-16T01:42:42;10.02;;;6.35;;
10126;SDS011;13080;42.608;23.362;2024-01-16T01:45:09;7.53;;;4.80;;
10126;SDS011;13080;42.608;23.362;2024-01-16T01:47:35;6.70;;;3.90;;
10126;SDS011;13080;42.608;23.362;2024-01-16T01:50:02;9.38;;;4.72;;
10126;SDS011;13080;42.608;23.362;2024-01-16T01:52:30;7.18;;;5.45;;
10126;SDS011;13080;42.608;23.362;2024-01-16T01:54:59;7.72;;;4.53;;
10126;SDS011;13080;42.608;23.362;2024-01-16T01:57:27;8.63;;;5.38;;
10126;SDS011;13080;42.608;23.362;2024-01-16T01:59:53;5.43;;;3.83;;
10126;SDS011;13080;42.608;23.362;2024-01-16T02:02:20;7.93;;;4.18;;
10126;SDS011;13080;42.608;23.362;2024-01-16T02:04:47;7.78;;;4.25;;
10126;SDS011;13080;42.608;23.362;2024-01-16T02:07:13;5.80;;;3.28;;
10126;SDS011;13080;42.608;23.362;2024-01-16T02:09:41;7.47;;;3.50;;
10126;SDS011;13080;42.608;23.362;2024-01-16T02:12:09;5.13;;;3.15;;
10126;SDS011;13080;42.608;23.362;2024-01-16T02:14:36;6.07;;;3.67;;
10126;SDS011;13080;42.608;23.362;2024-01-16T02:17:03;5.25;;;3.28;;
10126;SDS011;13080;42.608;23.362;2024-01-16T02:19:29;7.75;;;3.63;;
10126;SDS011;13080;42.608;23.362;2024-01-16T02:21:59;6.57;;;3.70;;
10126;SDS011;13080;42.608;23.362;2024-01-16T02:24:27;7.68;;;3.75;;
10126;SDS011;13080;42.608;23.362;2024-01-16T02:26:54;5.03;;;3.17;;
10126;SDS011;13080;42.608;23.362;2024-01-16T02:29:20;5.00;;;3.25;;
10126;SDS011;13080;42.608;23.362;2024-01-16T02:31:47;6.30;;;3.65;;
10126;SDS011;13080;42.608;23.362;2024-01-16T02:34:13;6.95;;;4.90;;
10126;SDS011;13080;42.608;23.362;2024-01-16T02:36:40;7.22;;;5.13;;
10126;SDS011;13080;42.608;23.362;2024-01-16T02:39:07;7.40;;;5.55;;
10126;SDS011;13080;42.608;23.362;2024-01-16T02:41:35;6.80;;;4.90;;
10126;SDS011;13080;42.608;23.362;2024-01-16T02:44:01;6.72;;;4.63;;
10126;SDS011;13080;42.608;23.362;2024-01-16T02:46:28;7.80;;;3.22;;
10126;SDS011;13080;42.608;23.362;2024-01-16T02:48:54;6.25;;;3.45;;
10126;SDS011;13080;42.608;23.362;2024-01-16T02:51:21;5.22;;;2.97;;
10126;SDS011;13080;42.608;23.362;2024-01-16T02:53:48;5.47;;;3.25;;
10126;SDS011;13080;42.608;23.362;2024-01-16T02:56:14;5.50;;;3.53;;
10126;SDS011;13080;42.608;23.362;2024-01-16T02:58:42;4.90;;;2.92;;
10126;SDS011;13080;42.608;23.362;2024-01-16T03:01:09;5.90;;;2.70;;
10126;SDS011;13080;42.608;23.362;2024-01-16T03:03:36;4.15;;;2.70;;
10126;SDS011;13080;42.608;23.362;2024-01-16T03:06:02;4.85;;;3.20;;
10126;SDS011;13080;42.608;23.362;2024-01-16T03:08:29;5.80;;;4.05;;
10126;SDS011;13080;42.608;23.362;2024-01-16T03:10:56;5.95;;;3.65;;
10126;SDS011;13080;42.608;23.362;2024-01-16T03:13:23;5.90;;;4.03;;
10126;SDS011;13080;42.608;23.362;2024-01-16T03:15:51;8.60;;;3.97;;
10126;SDS011;13080;42.608;23.362;2024-01-16T03:18:17;7.07;;;5.03;;
10126;SDS011;13080;42.608;23.362;2024-01-16T03:20:44;5.70;;;3.67;;
10126;SDS011;13080;42.608;23.362;2024-01-16T03:23:10;6.13;;;3.47;;
10126;SDS011;13080;42.608;23.362;2024-01-16T03:25:37;8.73;;;3.70;;
10126;SDS011;13080;42.608;23.362;2024-01-16T03:28:04;6.22;;;3.70;;
10126;SDS011;13080;42.608;23.362;2024-01-16T03:30:33;6.38;;;3.95;;
10126;SDS011;13080;42.608;23.362;2024-01-16T03:33:01;7.22;;;3.88;;
10126;SDS011;13080;42.608;23.362;2024-01-16T03:35:27;6.30;;;3.78;;
10126;SDS011;13080;42.608;23.362;2024-01-16T03:37:54;6.85;;;3.47;;
10126;SDS011;13080;42.608;23.362;2024-01-16T03:40:21;4.75;;;3.60;;
10126;SDS011;13080;42.608;23.362;2024-01-16T03:42:47;8.00;;;4.00;;
10126;SDS011;13080;42.608;23.362;2024-01-16T03:45:14;6.50;;;3.75;;
10126;SDS011;13080;42.608;23.362;2024-01-16T03:47:40;4.97;;;3.05;;
10126;SDS011;13080;42.608;23.362;2024-01-16T03:50:09;5.90;;;3.42;;
10126;SDS011;13080;42.608;23.362;2024-01-16T03:52:36;6.53;;;3.10;;
10126;SDS011;13080;42.608;23.362;2024-01-16T03:55:02;3.97;;;3.05;;
10126;SDS011;13080;42.608;23.362;2024-01-16T03:57:29;3.60;;;2.75;;
10126;SDS011;13080;42.608;23.362;2024-01-16T03:59:56;3.63;;;2.28;;
10126;SDS011;13080;42.608;23.362;2024-01-16T04:02:22;4.45;;;3.40;;
10126;SDS011;13080;42.608;23.362;2024-01-16T04:04:49;4.38;;;3.03;;
10126;SDS011;13080;42.608;23.362;2024-01-16T04:07:17;3.85;;;2.80;;
10126;SDS011;13080;42.608;23.362;2024-01-16T04:09:43;5.70;;;2.53;;
10126;SDS011;13080;42.608;23.362;2024-01-16T04:12:10;4.53;;;2.72;;
10126;SDS011;13080;42.608;23.362;2024-01-16T04:14:37;5.07;;;2.80;;
10126;SDS011;13080;42.608;23.362;2024-01-16T04:17:03;5.57;;;3.53;;
10126;SDS011;13080;42.608;23.362;2024-01-16T04:19:30;3.50;;;3.00;;
10126;SDS011;13080;42.608;23.362;2024-01-16T04:21:59;4.70;;;3.38;;
10126;SDS011;13080;42.608;23.362;2024-01-16T04:24:27;3.35;;;3.05;;
10126;SDS011;13080;42.608;23.362;2024-01-16T04:26:53;3.42;;;2.72;;
10126;SDS011;13080;42.608;23.362;2024-01-16T04:29:20;5.32;;;3.10;;
10126;SDS011;13080;42.608;23.362;2024-01-16T04:31:47;8.57;;;3.85;;
10126;SDS011;13080;42.608;23.362;2024-01-16T04:34:13;5.38;;;2.53;;
10126;SDS011;13080;42.608;23.362;2024-01-16T04:36:40;3.40;;;2.28;;
10126;SDS011;13080;42.608;23.362;2024-01-16T04:39:06;2.50;;;2.15;;
10126;SDS011;13080;42.608;23.362;2024-01-16T04:41:35;3.28;;;2.17;;
10126;SDS011;13080;42.608;23.362;2024-01-16T04:44:02;3.45;;;2.42;;
10126;SDS011;13080;42.608;23.362;2024-01-16T04:46:32;5.13;;;3.05;;
10126;SDS011;13080;42.608;23.362;2024-01-16T04:48:58;3.80;;;3.25;;
10126;SDS011;13080;42.608;23.362;2024-01-16T04:51:25;4.68;;;2.90;;
10126;SDS011;13080;42.608;23.362;2024-01-16T04:53:52;3.10;;;2.38;;
10126;SDS011;13080;42.608;23.362;2024-01-16T04:56:18;3.28;;;2.50;;
10126;SDS011;13080;42.608;23.362;2024-01-16T04:58:47;4.18;;;3.10;;
10126;SDS011;13080;42.608;23.362;2024-01-16T05:01:14;3.83;;;2.05;;
10126;SDS011;13080;42.608;23.362;2024-01-16T05:03:40;3.75;;;2.47;;
10126;SDS011;13080;42.608;23.362;2024-01-16T05:06:12;2.97;;;2.03;;
10126;SDS011;13080;42.608;23.362;2024-01-16T05:08:38;2.63;;;2.13;;
10126;SDS011;13080;42.608;23.362;2024-01-16T05:11:05;4.00;;;2.55;;
10126;SDS011;13080;42.608;23.362;2024-01-16T05:13:31;2.72;;;1.95;;
10126;SDS011;13080;42.608;23.362;2024-01-16T05:15:59;3.85;;;2.72;;
10126;SDS011;13080;42.608;23.362;2024-01-16T05:18:26;3.28;;;2.63;;
10126;SDS011;13080;42.608;23.362;2024-01-16T05:20:53;3.55;;;2.25;;
10126;SDS011;13080;42.608;23.362;2024-01-16T05:23:21;3.30;;;2.28;;
10126;SDS011;13080;42.608;23.362;2024-01-16T05:25:47;3.22;;;2.05;;
10126;SDS011;13080;42.608;23.362;2024-01-16T05:28:14;3.22;;;2.38;;
10126;SDS011;13080;42.608;23.362;2024-01-16T05:30:41;4.10;;;2.50;;
10126;SDS011;13080;42.608;23.362;2024-01-16T05:33:09;2.63;;;2.42;;
10126;SDS011;13080;42.608;23.362;2024-01-16T05:35:35;5.03;;;3.33;;
10126;SDS011;13080;42.608;23.362;2024-01-16T05:38:02;3.35;;;2.60;;
10126;SDS011;13080;42.608;23.362;2024-01-16T05:40:29;3.58;;;2.33;;
10126;SDS011;13080;42.608;23.362;2024-01-16T05:42:56;3.63;;;2.40;;
10126;SDS011;13080;42.608;23.362;2024-01-16T05:45:23;3.88;;;2.80;;
10126;SDS011;13080;42.608;23.362;2024-01-16T05:47:49;3.20;;;2.33;;
10126;SDS011;13080;42.608;23.362;2024-01-16T05:50:17;4.55;;;2.00;;
10126;SDS011;13080;42.608;23.362;2024-01-16T05:52:44;4.03;;;2.10;;
10126;SDS011;13080;42.608;23.362;2024-01-16T05:55:11;1.73;;;1.50;;
10126;SDS011;13080;42.608;23.362;2024-01-16T05:57:37;2.00;;;1.40;;
10126;SDS011;13080;42.608;23.362;2024-01-16T06:00:04;2.28;;;1.60;;
10126;SDS011;13080;42.608;23.362;2024-01-16T06:02:31;2.70;;;1.52;;
10126;SDS011;13080;42.608;23.362;2024-01-16T06:04:58;2.42;;;1.27;;
10126;SDS011;13080;42.608;23.362;2024-01-16T06:07:26;2.13;;;1.38;;
10126;SDS011;13080;42.608;23.362;2024-01-16T06:09:52;1.40;;;1.30;;
10126;SDS011;13080;42.608;23.362;2024-01-16T06:12:19;2.22;;;2.03;;
10126;SDS011;13080;42.608;23.362;2024-01-16T06:14:46;2.30;;;1.88;;
10126;SDS011;13080;42.608;23.362;2024-01-16T06:17:12;2.45;;;1.55;;
10126;SDS011;13080;42.608;23.362;2024-01-16T06:19:39;2.20;;;2.00;;
10126;SDS011;13080;42.608;23.362;2024-01-16T06:22:06;1.60;;;1.30;;
10126;SDS011;13080;42.608;23.362;2024-01-16T06:24:35;2.75;;;2.13;;
10126;SDS011;13080;42.608;23.362;2024-01-16T06:27:03;1.55;;;1.27;;
10126;SDS011;13080;42.608;23.362;2024-01-16T06:29:30;1.70;;;1.55;;
10126;SDS011;13080;42.608;23.362;2024-01-16T06:31:56;2.67;;;1.90;;
10126;SDS011;13080;42.608;23.362;2024-01-16T06:34:23;2.38;;;1.42;;
10126;SDS011;13080;42.608;23.362;2024-01-16T06:36:50;1.95;;;1.50;;
10126;SDS011;13080;42.608;23.362;2024-01-16T06:39:16;2.40;;;1.48;;
10126;SDS011;13080;42.608;23.362;2024-01-16T06:41:44;2.25;;;1.67;;
10126;SDS011;13080;42.608;23.362;2024-01-16T06:44:11;2.20;;;1.95;;
10126;SDS011;13080;42.608;23.362;2024-01-16T06:46:38;2.30;;;1.65;;
10126;SDS011;13080;42.608;23.362;2024-01-16T06:49:04;1.55;;;1.45;;
10126;SDS011;13080;42.608;23.362;2024-01-16T06:51:31;2.25;;;1.30;;
10126;SDS011;13080;42.608;23.362;2024-01-16T06:53:58;2.03;;;1.50;;
10126;SDS011;13080;42.608;23.362;2024-01-16T06:56:24;2.80;;;1.35;;
10126;SDS011;13080;42.608;23.362;2024-01-16T06:58:53;1.77;;;1.33;;
10126;SDS011;13080;42.608;23.362;2024-01-16T07:01:19;3.25;;;1.48;;
10126;SDS011;13080;42.608;23.362;2024-01-16T07:03:46;2.00;;;1.40;;
10126;SDS011;13080;42.608;23.362;2024-01-16T07:06:12;1.23;;;1.13;;
10126;SDS011;13080;42.608;23.362;2024-01-16T07:08:39;1.50;;;1.40;;
10126;SDS011;13080;42.608;23.362;2024-01-16T07:11:06;3.20;;;1.63;;
10126;SDS011;13080;42.608;23.362;2024-01-16T07:13:37;1.60;;;1.50;;
10126;SDS011;13080;42.608;23.362;2024-01-16T07:16:05;2.97;;;1.48;;
10126;SDS011;13080;42.608;23.362;2024-01-16T07:18:31;3.35;;;1.73;;
10126;SDS011;13080;42.608;23.362;2024-01-16T07:20:58;1.40;;;1.30;;
10126;SDS011;13080;42.608;23.362;2024-01-16T07:23:25;2.97;;;1.02;;
10126;SDS011;13080;42.608;23.362;2024-01-16T07:25:51;2.38;;;1.20;;
10126;SDS011;13080;42.608;23.362;2024-01-16T07:28:18;3.70;;;1.17;;
10126;SDS011;13080;42.608;23.362;2024-01-16T07:30:47;3.47;;;1.30;;
10126;SDS011;13080;42.608;23.362;2024-01-16T07:33:15;4.55;;;2.13;;
10126;SDS011;13080;42.608;23.362;2024-01-16T07:35:41;1.05;;;0.95;;
10126;SDS011;13080;42.608;23.362;2024-01-16T07:38:12;2.67;;;1.60;;
10126;SDS011;13080;42.608;23.362;2024-01-16T07:40:39;6.60;;;2.83;;
10126;SDS011;13080;42.608;23.362;2024-01-16T07:43:06;1.95;;;1.13;;
10126;SDS011;13080;42.608;23.362;2024-01-16T07:45:32;3.03;;;1.05;;
10126;SDS011;13080;42.608;23.362;2024-01-16T07:47:59;1.38;;;0.98;;
10126;SDS011;13080;42.608;23.362;2024-01-16T07:50:27;1.20;;;0.98;;
10126;SDS011;13080;42.608;23.362;2024-01-16T07:52:53;1.25;;;0.90;;
10126;SDS011;13080;42.608;23.362;2024-01-16T07:55:20;1.42;;;1.30;;
10126;SDS011;13080;42.608;23.362;2024-01-16T07:57:47;1.10;;;1.00;;
10126;SDS011;13080;42.608;23.362;2024-01-16T08:00:13;2.95;;;1.77;;
10126;SDS011;13080;42.608;23.362;2024-01-16T08:02:40;1.45;;;0.85;;
10126;SDS011;13080;42.608;23.362;2024-01-16T08:05:07;2.15;;;1.30;;
10126;SDS011;13080;42.608;23.362;2024-01-16T08:07:35;6.13;;;3.55;;
10126;SDS011;13080;42.608;23.362;2024-01-16T08:10:02;3.58;;;1.70;;
10126;SDS011;13080;42.608;23.362;2024-01-16T08:12:28;5.80;;;3.13;;
10126;SDS011;13080;42.608;23.362;2024-01-16T08:14:55;12.05;;;7.28;;
10126;SDS011;13080;42.608;23.362;2024-01-16T08:17:22;3.50;;;2.22;;
10126;SDS011;13080;42.608;23.362;2024-01-16T08:19:48;2.63;;;1.77;;
10126;SDS011;13080;42.608;23.362;2024-01-16T08:22:15;1.50;;;1.33;;
10126;SDS011;13080;42.608;23.362;2024-01-16T08:24:43;4.68;;;2.20;;
10126;SDS011;13080;42.608;23.362;2024-01-16T08:27:09;4.10;;;3.00;;
10126;SDS011;13080;42.608;23.362;2024-01-16T08:29:36;1.95;;;1.70;;
10126;SDS011;13080;42.608;23.362;2024-01-16T08:32:03;1.30;;;1.13;;
10126;SDS011;13080;42.608;23.362;2024-01-16T08:34:29;2.55;;;2.30;;
10126;SDS011;13080;42.608;23.362;2024-01-16T08:36:56;2.67;;;1.63;;
10126;SDS011;13080;42.608;23.362;2024-01-16T08:39:23;6.63;;;2.33;;
10126;SDS011;13080;42.608;23.362;2024-01-16T08:41:51;22.33;;;10.85;;
10126;SDS011;13080;42.608;23.362;2024-01-16T08:44:17;4.07;;;2.25;;
10126;SDS011;13080;42.608;23.362;2024-01-16T08:46:44;1.95;;;1.27;;
10126;SDS011;13080;42.608;23.362;2024-01-16T08:49:11;4.43;;;1.80;;
10126;SDS011;13080;42.608;23.362;2024-01-16T08:51:39;2.13;;;1.52;;
10126;SDS011;13080;42.608;23.362;2024-01-16T08:54:06;2.05;;;1.73;;
10126;SDS011;13080;42.608;23.362;2024-01-16T08:56:33;3.13;;;2.10;;
10126;SDS011;13080;42.608;23.362;2024-01-16T08:59:01;3.17;;;2.15;;
10126;SDS011;13080;42.608;23.362;2024-01-16T09:01:28;1.83;;;1.65;;
10126;SDS011;13080;42.608;23.362;2024-01-16T09:03:54;3.97;;;2.38;;
10126;SDS011;13080;42.608;23.362;2024-01-16T09:06:21;2.70;;;1.98;;
10126;SDS011;13080;42.608;23.362;2024-01-16T09:08:48;2.80;;;2.10;;
10126;SDS011;13080;42.608;23.362;2024-01-16T09:11:14;2.65;;;2.20;;
10126;SDS011;13080;42.608;23.362;2024-01-16T09:13:43;2.47;;;1.75;;
10126;SDS011;13080;42.608;23.362;2024-01-16T09:16:12;2.05;;;1.85;;
10126;SDS011;13080;42.608;23.362;2024-01-16T09:18:38;3.90;;;1.88;;
10126;SDS011;13080;42.608;23.362;2024-01-16T09:21:05;2.97;;;1.88;;
10126;SDS011;13080;42.608;23.362;2024-01-16T09:23:31;2.10;;;1.23;;
10126;SDS011;13080;42.608;23.362;2024-01-16T09:25:58;1.60;;;1.50;;
10126;SDS011;13080;42.608;23.362;2024-01-16T09:28:25;2.05;;;1.60;;
10126;SDS011;13080;42.608;23.362;2024-01-16T09:30:54;2.17;;;1.70;;
10126;SDS011;13080;42.608;23.362;2024-01-16T09:33:22;3.00;;;1.63;;
10126;SDS011;13080;42.608;23.362;2024-01-16T09:35:50;1.48;;;1.10;;
10126;SDS011;13080;42.608;23.362;2024-01-16T09:38:17;7.45;;;3.17;;
10126;SDS011;13080;42.608;23.362;2024-01-16T09:40:43;14.80;;;6.95;;
10126;SDS011;13080;42.608;23.362;2024-01-16T09:43:11;8.85;;;4.50;;
10126;SDS011;13080;42.608;23.362;2024-01-16T09:45:38;4.07;;;2.28;;
10126;SDS011;13080;42.608;23.362;2024-01-16T09:48:05;4.95;;;1.92;;
10126;SDS011;13080;42.608;23.362;2024-01-16T09:50:34;10.07;;;5.35;;
10126;SDS011;13080;42.608;23.362;2024-01-16T09:53:01;14.68;;;6.78;;
10126;SDS011;13080;42.608;23.362;2024-01-16T09:55:28;4.43;;;2.55;;
10126;SDS011;13080;42.608;23.362;2024-01-16T09:57:55;4.07;;;2.22;;
10126;SDS011;13080;42.608;23.362;2024-01-16T10:00:22;7.88;;;4.75;;
10126;SDS011;13080;42.608;23.362;2024-01-16T10:02:50;3.72;;;1.95;;
10126;SDS011;13080;42.608;23.362;2024-01-16T10:05:17;5.93;;;4.20;;
10126;SDS011;13080;42.608;23.362;2024-01-16T10:07:45;2.85;;;1.92;;
10126;SDS011;13080;42.608;23.362;2024-01-16T10:10:13;1.33;;;1.20;;
10126;SDS011;13080;42.608;23.362;2024-01-16T10:12:39;2.38;;;1.63;;
10126;SDS011;13080;42.608;23.362;2024-01-16T10:15:07;3.10;;;1.52;;
10126;SDS011;13080;42.608;23.362;2024-01-16T10:17:37;2.08;;;1.20;;
10126;SDS011;13080;42.608;23.362;2024-01-16T10:20:04;1.85;;;1.20;;
10126;SDS011;13080;42.608;23.362;2024-01-16T10:22:31;1.77;;;1.27;;
10126;SDS011;13080;42.608;23.362;2024-01-16T10:25:06;1.63;;;1.23;;
10126;SDS011;13080;42.608;23.362;2024-01-16T10:27:34;1.75;;;1.20;;
10126;SDS011;13080;42.608;23.362;2024-01-16T10:30:00;1.95;;;1.40;;
10126;SDS011;13080;42.608;23.362;2024-01-16T10:32:28;2.00;;;1.48;;
10126;SDS011;13080;42.608;23.362;2024-01-16T10:35:02;3.10;;;1.90;;
10126;SDS011;13080;42.608;23.362;2024-01-16T10:37:30;6.95;;;2.60;;
10126;SDS011;13080;42.608;23.362;2024-01-16T10:39:57;14.55;;;5.32;;
10126;SDS011;13080;42.608;23.362;2024-01-16T10:42:25;21.80;;;9.10;;
10126;SDS011;13080;42.608;23.362;2024-01-16T10:44:54;27.15;;;12.38;;
10126;SDS011;13080;42.608;23.362;2024-01-16T10:47:21;6.95;;;2.88;;
10126;SDS011;13080;42.608;23.362;2024-01-16T10:49:48;2.75;;;2.13;;
10126;SDS011;13080;42.608;23.362;2024-01-16T10:52:15;7.57;;;3.40;;
10126;SDS011;13080;42.608;23.362;2024-01-16T10:54:43;16.15;;;7.88;;
10126;SDS011;13080;42.608;23.362;2024-01-16T10:57:14;2.28;;;1.40;;
10126;SDS011;13080;42.608;23.362;2024-01-16T10:59:46;4.75;;;2.72;;
10126;SDS011;13080;42.608;23.362;2024-01-16T11:02:19;2.88;;;1.35;;
10126;SDS011;13080;42.608;23.362;2024-01-16T11:04:47;2.72;;;1.27;;
10126;SDS011;13080;42.608;23.362;2024-01-16T11:07:14;3.03;;;1.38;;
10126;SDS011;13080;42.608;23.362;2024-01-16T11:09:42;3.60;;;2.33;;
10126;SDS011;13080;42.608;23.362;2024-01-16T11:12:09;23.67;;;10.55;;
10126;SDS011;13080;42.608;23.362;2024-01-16T11:14:41;5.05;;;2.95;;
10126;SDS011;13080;42.608;23.362;2024-01-16T11:17:10;3.72;;;1.70;;
10126;SDS011;13080;42.608;23.362;2024-01-16T11:19:43;4.28;;;2.97;;
10126;SDS011;13080;42.608;23.362;2024-01-16T11:22:10;34.28;;;12.52;;
10126;SDS011;13080;42.608;23.362;2024-01-16T11:24:37;26.60;;;11.95;;
10126;SDS011;13080;42.608;23.362;2024-01-16T11:27:03;27.55;;;14.88;;
10126;SDS011;13080;42.608;23.362;2024-01-16T11:29:34;10.48;;;3.28;;
10126;SDS011;13080;42.608;23.362;2024-01-16T11:32:01;3.72;;;1.70;;
10126;SDS011;13080;42.608;23.362;2024-01-16T11:37:14;5.07;;;1.55;;
10126;SDS011;13080;42.608;23.362;2024-01-16T11:39:41;9.77;;;3.30;;
10126;SDS011;13080;42.608;23.362;2024-01-16T11:42:08;4.53;;;2.33;;
10126;SDS011;13080;42.608;23.362;2024-01-16T11:44:39;2.78;;;1.20;;
10126;SDS011;13080;42.608;23.362;2024-01-16T11:47:05;4.75;;;1.98;;
10126;SDS011;13080;42.608;23.362;2024-01-16T11:49:33;9.50;;;3.70;;
10126;SDS011;13080;42.608;23.362;2024-01-16T11:52:00;9.18;;;3.38;;
10126;SDS011;13080;42.608;23.362;2024-01-16T11:54:29;16.77;;;7.38;;
10126;SDS011;13080;42.608;23.362;2024-01-16T11:59:59;7.63;;;3.75;;
10126;SDS011;13080;42.608;23.362;2024-01-16T12:02:29;10.27;;;4.70;;
10126;SDS011;13080;42.608;23.362;2024-01-16T12:05:00;5.45;;;2.78;;
10126;SDS011;13080;42.608;23.362;2024-01-16T12:07:41;3.20;;;2.38;;
10126;SDS011;13080;42.608;23.362;2024-01-16T12:10:10;8.07;;;4.40;;
10126;SDS011;13080;42.608;23.362;2024-01-16T12:12:38;5.35;;;3.38;;
10126;SDS011;13080;42.608;23.362;2024-01-16T12:15:05;7.88;;;3.92;;
10126;SDS011;13080;42.608;23.362;2024-01-16T12:17:32;11.82;;;5.72;;
10126;SDS011;13080;42.608;23.362;2024-01-16T12:19:58;22.67;;;12.35;;
10126;SDS011;13080;42.608;23.362;2024-01-16T12:22:25;12.98;;;5.88;;
10126;SDS011;13080;42.608;23.362;2024-01-16T12:24:55;41.10;;;20.50;;
10126;SDS011;13080;42.608;23.362;2024-01-16T12:27:23;16.48;;;7.72;;
10126;SDS011;13080;42.608;23.362;2024-01-16T12:29:53;27.92;;;12.70;;
10126;SDS011;13080;42.608;23.362;2024-01-16T12:32:31;21.83;;;7.47;;
10126;SDS011;13080;42.608;23.362;2024-01-16T12:34:57;67.93;;;30.05;;
10126;SDS011;13080;42.608;23.362;2024-01-16T12:37:24;31.27;;;13.23;;
10126;SDS011;13080;42.608;23.362;2024-01-16T12:39:50;45.85;;;17.83;;
10126;SDS011;13080;42.608;23.362;2024-01-16T12:42:19;34.42;;;14.07;;
10126;SDS011;13080;42.608;23.362;2024-01-16T12:44:47;33.35;;;14.70;;
10126;SDS011;13080;42.608;23.362;2024-01-16T12:47:14;5.53;;;2.97;;
10126;SDS011;13080;42.608;23.362;2024-01-16T12:49:42;5.95;;;3.47;;
10126;SDS011;13080;42.608;23.362;2024-01-16T12:52:17;3.92;;;1.90;;
10126;SDS011;13080;42.608;23.362;2024-01-16T12:54:44;2.30;;;2.10;;
10126;SDS011;13080;42.608;23.362;2024-01-16T12:57:14;4.32;;;2.35;;
10126;SDS011;13080;42.608;23.362;2024-01-16T12:59:42;5.38;;;3.65;;
10126;SDS011;13080;42.608;23.362;2024-01-16T13:02:10;2.65;;;2.08;;
10126;SDS011;13080;42.608;23.362;2024-01-16T13:04:45;2.63;;;1.70;;
10126;SDS011;13080;42.608;23.362;2024-01-16T13:07:15;3.20;;;2.33;;
10126;SDS011;13080;42.608;23.362;2024-01-16T13:09:42;2.63;;;2.42;;
10126;SDS011;13080;42.608;23.362;2024-01-16T13:12:08;7.45;;;3.90;;
10126;SDS011;13080;42.608;23.362;2024-01-16T13:14:36;4.50;;;1.88;;
10126;SDS011;13080;42.608;23.362;2024-01-16T13:17:03;4.72;;;3.05;;
10126;SDS011;13080;42.608;23.362;2024-01-16T13:19:33;2.13;;;1.83;;
10126;SDS011;13080;42.608;23.362;2024-01-16T13:21:59;2.22;;;2.03;;
10126;SDS011;13080;42.608;23.362;2024-01-16T13:24:26;3.33;;;2.00;;
10126;SDS011;13080;42.608;23.362;2024-01-16T13:26:52;2.03;;;1.63;;
10126;SDS011;13080;42.608;23.362;2024-01-16T13:29:18;3.08;;;2.20;;
10126;SDS011;13080;42.608;23.362;2024-01-16T13:31:45;2.78;;;1.95;;
10126;SDS011;13080;42.608;23.362;2024-01-16T13:34:12;3.42;;;2.33;;
10126;SDS011;13080;42.608;23.362;2024-01-16T13:36:41;9.80;;;6.45;;
10126;SDS011;13080;42.608;23.362;2024-01-16T13:39:08;3.75;;;2.78;;
10126;SDS011;13080;42.608;23.362;2024-01-16T13:41:37;3.33;;;1.77;;
10126;SDS011;13080;42.608;23.362;2024-01-16T13:44:04;4.70;;;1.88;;
10126;SDS011;13080;42.608;23.362;2024-01-16T13:46:31;4.63;;;2.95;;
10126;SDS011;13080;42.608;23.362;2024-01-16T13:48:58;3.78;;;1.90;;
10126;SDS011;13080;42.608;23.362;2024-01-16T13:51:25;3.10;;;1.83;;
10126;SDS011;13080;42.608;23.362;2024-01-16T13:53:54;3.35;;;2.05;;
10126;SDS011;13080;42.608;23.362;2024-01-16T13:56:20;3.97;;;2.30;;
10126;SDS011;13080;42.608;23.362;2024-01-16T13:58:47;5.35;;;3.00;;
10126;SDS011;13080;42.608;23.362;2024-01-16T14:01:13;2.90;;;2.22;;
10126;SDS011;13080;42.608;23.362;2024-01-16T14:03:40;3.53;;;2.17;;
10126;SDS011;13080;42.608;23.362;2024-01-16T14:06:08;3.70;;;2.47;;
10126;SDS011;13080;42.608;23.362;2024-01-16T14:08:35;10.40;;;3.35;;
10126;SDS011;13080;42.608;23.362;2024-01-16T14:11:03;4.43;;;2.70;;
10126;SDS011;13080;42.608;23.362;2024-01-16T14:13:30;5.80;;;3.33;;
10126;SDS011;13080;42.608;23.362;2024-01-16T14:15:56;4.15;;;2.40;;
10126;SDS011;13080;42.608;23.362;2024-01-16T14:18:23;2.85;;;1.80;;
10126;SDS011;13080;42.608;23.362;2024-01-16T14:20:49;4.03;;;2.83;;
10126;SDS011;13080;42.608;23.362;2024-01-16T14:23:16;4.60;;;2.30;;
10126;SDS011;13080;42.608;23.362;2024-01-16T14:25:43;4.72;;;2.15;;
10126;SDS011;13080;42.608;23.362;2024-01-16T14:28:12;3.53;;;2.33;;
10126;SDS011;13080;42.608;23.362;2024-01-16T14:30:38;4.93;;;1.98;;
10126;SDS011;13080;42.608;23.362;2024-01-16T14:33:05;6.72;;;2.92;;
10126;SDS011;13080;42.608;23.362;2024-01-16T14:35:33;4.45;;;2.33;;
10126;SDS011;13080;42.608;23.362;2024-01-16T14:38:00;2.85;;;2.35;;